Time;durP1;ratioP1;P1;durP2;ratioP2;P2;SDS_P1;SDS_P2;PMS_P1;PMS_P2;Temp;Humidity;BMP_temperature;BMP_pressure;BME280_temperature;BME280_humidity;BME280_pressure;Samples;Min_cycle;Max_cycle;Signal;HPM_P1;HPM_P2
2021/12/30 00:01:13;;;;;;;30.30;19.88;;;;;;;5.05;100.00;100315.25;7400089;19;20475;-68
2021/12/30 00:03:41;;;;;;;32.90;19.02;;;;;;;5.06;100.00;100313.50;7400867;19;20010;-68
2021/12/30 00:06:12;;;;;;;32.20;18.80;;;;;;;5.08;100.00;100316.97;7398181;19;20019;-68
2021/12/30 00:08:41;;;;;;;29.48;19.00;;;;;;;5.08;100.00;100318.69;7400567;19;20018;-68
2021/12/30 00:11:10;;;;;;;30.30;18.15;;;;;;;5.09;100.00;100320.41;7400090;19;20023;-67
2021/12/30 00:13:44;;;;;;;28.73;17.73;;;;;;;5.10;100.00;100322.16;7400170;19;20011;-68
2021/12/30 00:16:12;;;;;;;30.02;18.02;;;;;;;5.11;100.00;100318.69;7397485;19;20010;-69
2021/12/30 00:18:41;;;;;;;27.80;17.48;;;;;;;5.11;100.00;100322.13;7400271;19;20029;-69
2021/12/30 00:21:12;;;;;;;27.17;17.45;;;;;;;5.12;100.00;100312.56;7399986;19;20041;-69
2021/12/30 00:23:41;;;;;;;23.42;16.13;;;;;;;5.11;100.00;100309.13;7399091;19;20014;-69
2021/12/30 00:26:09;;;;;;;25.85;17.00;;;;;;;5.13;100.00;100306.50;7397889;19;20021;-69
2021/12/30 00:28:37;;;;;;;27.85;16.10;;;;;;;5.13;100.00;100307.41;7399636;19;20040;-67
2021/12/30 00:31:06;;;;;;;21.70;14.05;;;;;;;5.14;100.00;100309.09;7399148;19;20036;-68
2021/12/30 00:33:35;;;;;;;24.33;14.60;;;;;;;5.14;100.00;100306.50;7399407;19;20018;-68
2021/12/30 00:36:06;;;;;;;24.27;15.75;;;;;;;5.17;100.00;100308.25;7397601;19;20022;-68
2021/12/30 00:38:38;;;;;;;23.23;14.88;;;;;;;5.17;100.00;100311.69;7399715;19;20018;-67
2021/12/30 00:41:07;;;;;;;26.67;14.82;;;;;;;5.19;100.00;100315.16;7399624;19;20011;-67
2021/12/30 00:43:35;;;;;;;24.65;14.70;;;;;;;5.19;100.00;100317.75;7397840;19;20025;-67
2021/12/30 00:46:03;;;;;;;21.85;14.95;;;;;;;5.22;100.00;100322.06;7397297;19;20018;-68
2021/12/30 00:48:32;;;;;;;24.08;14.65;;;;;;;5.24;100.00;100332.47;7398953;19;20019;-68
2021/12/30 00:51:00;;;;;;;21.98;14.50;;;;;;;5.25;100.00;100323.78;7398831;19;20036;-67
2021/12/30 00:53:29;;;;;;;28.40;15.48;;;;;;;5.25;100.00;100326.41;7398827;19;20018;-67
2021/12/30 00:56:00;;;;;;;19.85;14.13;;;;;;;5.24;100.00;100328.09;7397179;19;20019;-66
2021/12/30 00:58:29;;;;;;;25.38;16.25;;;;;;;5.24;100.00;100328.09;7399052;19;20011;-67
2021/12/30 01:00:59;;;;;;;22.20;13.85;;;;;;;5.22;100.00;100322.94;7398451;19;20011;-66
2021/12/30 01:03:28;;;;;;;22.35;14.05;;;;;;;5.20;100.00;100337.66;7398912;19;20018;-67
2021/12/30 01:05:56;;;;;;;26.40;15.38;;;;;;;5.18;100.00;100336.84;7396853;19;20031;-68
2021/12/30 01:08:24;;;;;;;22.50;14.05;;;;;;;5.17;100.00;100331.66;7398375;19;20036;-68
2021/12/30 01:10:53;;;;;;;26.80;14.38;;;;;;;5.15;100.00;100336.84;7397779;19;20018;-68
2021/12/30 01:13:27;;;;;;;21.67;14.07;;;;;;;5.06;100.00;100327.34;7398135;19;20040;-67
2021/12/30 01:16:02;;;;;;;23.35;15.35;;;;;;;5.11;100.00;100337.72;7396924;19;20035;-67
2021/12/30 01:18:43;;;;;;;22.50;14.30;;;;;;;5.09;100.00;100342.06;7398403;19;20070;-68
2021/12/30 01:21:14;;;;;;;24.60;14.27;;;;;;;5.08;100.00;100349.88;7398256;19;20079;-68
2021/12/30 01:23:43;;;;;;;26.77;15.18;;;;;;;5.05;100.00;100349.03;7397318;19;20111;-68
2021/12/30 01:26:12;;;;;;;25.35;15.32;;;;;;;5.03;100.00;100353.38;7396235;19;20024;-68
2021/12/30 01:28:43;;;;;;;26.40;15.70;;;;;;;5.03;100.00;100349.91;7397576;19;20014;-68
2021/12/30 01:31:12;;;;;;;27.23;15.07;;;;;;;5.00;100.00;100348.19;7397982;19;20010;-68
2021/12/30 01:33:43;;;;;;;24.95;15.50;;;;;;;5.01;100.00;100346.47;7397469;19;20036;-68
2021/12/30 01:36:11;;;;;;;26.75;15.93;;;;;;;5.00;100.00;100347.31;7396070;19;20021;-69
2021/12/30 01:38:40;;;;;;;26.48;16.23;;;;;;;4.98;100.00;100349.94;7397375;19;20040;-68
2021/12/30 01:41:10;;;;;;;29.42;16.13;;;;;;;4.97;100.00;100353.41;7397332;19;20015;-74
2021/12/30 01:43:38;;;;;;;29.95;16.45;;;;;;;4.97;100.00;100357.75;7397346;19;20011;-70
2021/12/30 01:46:11;;;;;;;30.40;15.80;;;;;;;4.92;100.00;100359.50;7395586;19;20014;-69
2021/12/30 01:48:40;;;;;;;29.23;16.60;;;;;;;4.95;100.00;100364.69;7397457;19;20010;-69
2021/12/30 01:51:10;;;;;;;29.33;16.42;;;;;;;4.94;100.00;100366.44;7396845;19;20040;-69
2021/12/30 01:53:45;;;;;;;28.40;16.52;;;;;;;4.92;100.00;100356.91;7396824;19;20044;-68
2021/12/30 01:56:13;;;;;;;29.95;16.88;;;;;;;4.94;100.00;100352.56;7392521;19;20482;-68
2021/12/30 01:58:42;;;;;;;31.00;16.90;;;;;;;4.95;100.00;100346.50;7396267;19;20525;-68
2021/12/30 02:01:12;;;;;;;28.38;16.65;;;;;;;4.93;100.00;100356.91;7396100;19;20379;-69
2021/12/30 02:03:47;;;;;;;30.95;17.10;;;;;;;4.94;100.00;100371.63;7396957;19;20023;-68
2021/12/30 02:06:15;;;;;;;;;;;;;;;4.95;100.00;100372.47;7395874;19;20015;-69
2021/12/30 02:08:43;;;;;;;30.52;17.88;;;;;;;4.95;100.00;100380.28;7396343;19;19923;-69
2021/12/30 02:11:12;;;;;;;30.45;16.65;;;;;;;4.96;100.00;100374.22;7396248;19;20010;-68
2021/12/30 02:13:40;;;;;;;29.77;15.52;;;;;;;4.96;100.00;100375.06;7397907;19;20014;-69
2021/12/30 02:16:08;;;;;;;29.60;16.38;;;;;;;4.98;100.00;100365.53;7394447;19;20475;-69
2021/12/30 02:18:39;;;;;;;31.33;16.98;;;;;;;5.00;100.00;100368.97;7396046;19;20011;-69
2021/12/30 02:21:10;;;;;;;38.17;17.77;;;;;;;5.02;100.00;100364.66;7395614;19;20494;-69
2021/12/30 02:23:40;;;;;;;31.67;16.73;;;;;;;5.04;100.00;100356.84;7395280;19;20374;-68
2021/12/30 02:26:13;;;;;;;34.97;17.65;;;;;;;5.06;100.00;100353.34;7394575;19;20018;-69
2021/12/30 02:28:41;;;;;;;31.38;16.38;;;;;;;5.11;100.00;100357.69;7396224;19;20018;-69
2021/12/30 02:31:13;;;;;;;32.85;16.67;;;;;;;5.13;100.00;100350.72;7395587;19;20015;-68
2021/12/30 02:33:42;;;;;;;33.75;16.67;;;;;;;5.15;100.00;100357.63;7396032;19;20018;-69
2021/12/30 02:36:13;;;;;;;30.10;15.90;;;;;;;5.20;100.00;100360.22;7394069;19;20019;-69
2021/12/30 02:38:45;;;;;;;31.02;16.10;;;;;;;5.22;100.00;100363.69;7395904;19;20036;-69
2021/12/30 02:41:17;;;;;;;37.03;16.85;;;;;;;5.20;100.00;100350.66;7395780;19;20010;-69
2021/12/30 02:43:47;;;;;;;30.80;16.40;;;;;;;5.28;100.00;100352.38;7395564;19;20014;-69
2021/12/30 02:46:15;;;;;;;34.45;15.25;;;;;;;5.31;100.00;100358.41;7393533;19;20483;-69
2021/12/30 02:48:44;;;;;;;32.28;15.82;;;;;;;5.34;100.00;100363.59;7397490;19;20015;-70
2021/12/30 02:51:14;;;;;;;38.17;17.08;;;;;;;5.37;100.00;100362.72;7398191;19;20031;-69
2021/12/30 02:53:43;;;;;;;36.72;16.85;;;;;;;5.39;100.00;100356.63;7396239;19;20383;-69
2021/12/30 02:56:11;;;;;;;30.55;16.30;;;;;;;5.42;100.00;100376.56;7393585;19;20023;-69
2021/12/30 02:58:39;;;;;;;28.98;15.65;;;;;;;5.44;100.00;100374.81;7395524;19;20483;-69
2021/12/30 03:01:10;;;;;;;31.55;15.55;;;;;;;5.46;100.00;100380.00;7394488;19;20386;-68
2021/12/30 03:03:40;;;;;;;36.30;16.83;;;;;;;5.48;100.00;100388.66;7395801;19;20044;-69
2021/12/30 03:06:10;;;;;;;33.35;17.00;;;;;;;5.49;100.00;100403.41;7394486;19;20036;-69
2021/12/30 03:08:42;;;;;;;35.67;16.75;;;;;;;5.48;100.00;100399.06;7402548;19;20018;-69
2021/12/30 03:11:11;;;;;;;35.05;16.90;;;;;;;5.48;100.00;100394.72;7402144;19;20381;-68
2021/12/30 03:13:42;;;;;;;33.72;16.95;;;;;;;5.52;100.00;100405.97;7401818;19;20374;-69
2021/12/30 03:16:14;;;;;;;34.53;16.58;;;;;;;5.53;100.00;100392.09;7400057;19;20014;-69
2021/12/30 03:18:44;;;;;;;33.55;16.77;;;;;;;5.54;100.00;100399.91;7402065;19;20015;-68
2021/12/30 03:21:15;;;;;;;34.67;16.55;;;;;;;5.55;100.00;100404.22;7402384;19;20032;-68
2021/12/30 03:23:46;;;;;;;31.25;16.00;;;;;;;5.57;100.00;100412.03;7401558;19;20010;-68
2021/12/30 03:26:15;;;;;;;35.72;16.70;;;;;;;5.59;100.00;100410.28;7399507;19;20381;-68
2021/12/30 03:28:45;;;;;;;36.83;16.58;;;;;;;5.54;100.00;100407.69;7401696;19;20014;-68
2021/12/30 03:31:15;;;;;;;33.00;15.93;;;;;;;5.63;100.00;100418.94;7401488;19;20032;-68
2021/12/30 03:33:44;;;;;;;36.40;16.95;;;;;;;5.65;100.00;100411.97;7401844;19;20036;-69
2021/12/30 03:36:14;;;;;;;34.72;17.02;;;;;;;5.66;100.00;100411.09;7398257;19;20018;-69
2021/12/30 03:38:46;;;;;;;36.00;16.33;;;;;;;5.68;100.00;100412.81;7401274;19;20014;-68
2021/12/30 03:41:17;;;;;;;38.75;17.48;;;;;;;5.70;100.00;100413.69;7401539;19;20021;-68
2021/12/30 03:43:45;;;;;;;42.47;17.15;;;;;;;5.73;100.00;100412.78;7400769;19;20365;-68
2021/12/30 03:46:14;;;;;;;37.42;17.13;;;;;;;5.76;100.00;100411.91;7399039;19;20015;-69
2021/12/30 03:48:44;;;;;;;41.92;18.45;;;;;;;5.79;100.00;100433.56;7401070;19;20040;-68
2021/12/30 03:51:20;;;;;;;51.00;20.33;;;;;;;5.84;100.00;100441.38;7400829;19;20025;-68
2021/12/30 03:53:54;;;;;;;63.22;23.33;;;;;;;5.91;100.00;100460.41;7401203;19;20029;-68
2021/12/30 03:56:25;;;;;;;71.35;25.10;;;;;;;5.96;100.00;100461.22;7398753;19;20015;-68
2021/12/30 03:58:53;;;;;;;89.57;29.00;;;;;;;6.02;100.00;100451.66;7401021;19;20014;-68
2021/12/30 04:01:25;;;;;;;74.22;25.75;;;;;;;6.11;100.00;100457.69;7400582;19;20040;-69
2021/12/30 04:03:55;;;;;;;78.53;27.58;;;;;;;6.17;100.00;100462.84;7400609;19;20075;-68
2021/12/30 04:06:23;;;;;;;76.10;25.77;;;;;;;6.25;100.00;100458.41;7398035;19;20501;-68
2021/12/30 04:08:54;;;;;;;74.70;25.27;;;;;;;6.32;100.00;100467.91;7400384;19;20036;-69
2021/12/30 04:11:25;;;;;;;71.85;26.08;;;;;;;6.39;100.00;100470.47;7400335;19;20018;-69
2021/12/30 04:13:53;;;;;;;75.78;26.52;;;;;;;6.43;100.00;100483.47;7400548;19;20019;-69
2021/12/30 04:16:22;;;;;;;77.47;25.20;;;;;;;6.48;100.00;100492.13;7398065;19;20018;-69
2021/12/30 04:18:51;;;;;;;76.00;24.55;;;;;;;6.54;100.00;100498.16;7397963;19;20011;-69
2021/12/30 04:21:20;;;;;;;66.90;24.08;;;;;;;6.58;100.00;100499.84;7399982;19;20021;-69
2021/12/30 04:23:48;;;;;;;73.20;25.05;;;;;;;6.57;100.00;100505.94;7399065;19;20047;-69
2021/12/30 04:26:19;;;;;;;70.63;23.58;;;;;;;6.67;100.00;100528.41;7397920;19;20349;-69
2021/12/30 04:28:47;;;;;;;73.10;25.15;;;;;;;6.72;100.00;100533.59;7400222;19;20037;-69
2021/12/30 04:31:16;;;;;;;69.95;24.40;;;;;;;6.69;100.00;100537.09;7399556;19;20015;-68
2021/12/30 04:33:44;;;;;;;70.75;24.35;;;;;;;6.78;100.00;100547.44;7398945;19;20487;-68
2021/12/30 04:36:13;;;;;;;64.32;24.38;;;;;;;6.81;100.00;100552.66;7397524;19;20044;-69
2021/12/30 04:38:42;;;;;;;60.95;23.75;;;;;;;6.84;100.00;100559.56;7399286;19;20017;-69
2021/12/30 04:43:43;;;;;;;65.20;23.10;;;;;;;6.90;100.00;100559.50;7396476;19;20074;-69
2021/12/30 04:46:13;;;;;;;71.68;23.80;;;;;;;6.94;100.00;100560.34;7397326;19;20011;-69
2021/12/30 04:48:41;;;;;;;71.95;24.83;;;;;;;6.97;100.00;100560.31;7398975;19;20190;-69
2021/12/30 04:51:09;;;;;;;62.33;23.13;;;;;;;6.99;100.00;100558.56;7398864;19;20014;-69
2021/12/30 04:53:37;;;;;;;69.55;27.23;;;;;;;7.01;100.00;100560.28;7398854;19;20027;-69
2021/12/30 04:56:06;;;;;;;67.07;24.92;;;;;;;7.04;100.00;100553.28;7397170;19;20019;-69
2021/12/30 04:58:34;;;;;;;56.20;20.83;;;;;;;7.07;100.00;100566.31;7398755;19;20030;-69
2021/12/30 05:01:05;;;;;;;60.10;21.67;;;;;;;7.08;100.00;100568.91;7398414;19;20014;-69
2021/12/30 05:03:33;;;;;;;57.10;21.08;;;;;;;7.10;100.00;100563.66;7398904;19;20026;-69
2021/12/30 05:06:02;;;;;;;52.88;20.75;;;;;;;7.11;100.00;100547.13;7396749;19;20018;-69
2021/12/30 05:08:30;;;;;;;59.17;21.77;;;;;;;7.14;100.00;100560.13;7398381;19;20014;-69
2021/12/30 05:10:58;;;;;;;53.30;21.38;;;;;;;7.15;100.00;100570.56;7398117;19;20040;-68
2021/12/30 05:13:27;;;;;;;55.25;21.60;;;;;;;7.16;100.00;100572.28;7398197;19;20023;-69
2021/12/30 05:15:55;;;;;;;53.88;20.75;;;;;;;7.17;100.00;100571.41;7397040;19;20019;-68
2021/12/30 05:18:31;;;;;;;54.33;21.52;;;;;;;7.19;100.00;100568.81;7397979;19;20090;-69
2021/12/30 05:20:59;;;;;;;55.78;22.13;;;;;;;7.17;100.00;100576.63;7399037;19;20023;-69
2021/12/30 05:23:28;;;;;;;51.00;21.30;;;;;;;7.11;100.00;100576.69;7397892;19;20015;-69
2021/12/30 05:25:57;;;;;;;46.53;20.92;;;;;;;7.11;100.00;100583.66;7395214;19;20044;-69
2021/12/30 05:28:26;;;;;;;49.40;19.70;;;;;;;7.07;100.00;100587.19;7395610;19;20014;-69
2021/12/30 05:30:54;;;;;;;47.78;19.77;;;;;;;7.04;100.00;100584.59;7397206;19;20056;-69
2021/12/30 05:33:22;;;;;;;41.70;20.35;;;;;;;7.00;100.00;100586.34;7396776;19;20367;-68
2021/12/30 05:35:53;;;;;;;46.33;20.30;;;;;;;6.96;100.00;100588.16;7395991;19;20018;-68
2021/12/30 05:38:21;;;;;;;41.33;19.20;;;;;;;6.97;100.00;100594.22;7398253;19;20023;-68
2021/12/30 05:40:49;;;;;;;47.65;18.95;;;;;;;6.94;100.00;100587.28;7397307;19;20018;-68
2021/12/30 05:43:18;;;;;;;44.55;20.42;;;;;;;6.93;100.00;100582.94;7397144;19;20023;-68
2021/12/30 05:45:46;;;;;;;44.63;20.02;;;;;;;6.93;100.00;100588.16;7396125;19;20031;-68
2021/12/30 05:48:14;;;;;;;47.42;19.90;;;;;;;6.92;100.00;100589.03;7395587;19;20370;-68
2021/12/30 05:50:42;;;;;;;47.50;19.90;;;;;;;6.87;100.00;100577.78;7397168;19;20018;-69
2021/12/30 05:53:13;;;;;;;43.38;19.52;;;;;;;6.89;100.00;100596.91;7396659;19;20024;-68
2021/12/30 05:55:41;;;;;;;45.38;19.88;;;;;;;6.85;100.00;100588.25;7396092;19;20031;-68
2021/12/30 05:58:10;;;;;;;48.08;19.27;;;;;;;6.84;100.00;100598.69;7396605;19;20011;-68
2021/12/30 06:00:38;;;;;;;46.20;20.25;;;;;;;6.83;100.00;100591.75;7396076;19;20378;-69
2021/12/30 06:03:06;;;;;;;46.45;22.58;;;;;;;6.81;100.00;100611.75;7396359;19;20019;-68
2021/12/30 06:05:34;;;;;;;58.70;26.58;;;;;;;6.79;100.00;100608.31;7395470;19;20018;-68
2021/12/30 06:08:02;;;;;;;50.45;19.85;;;;;;;6.77;100.00;100618.72;7394909;19;20024;-69
2021/12/30 06:10:33;;;;;;;45.67;18.55;;;;;;;6.75;100.00;100617.88;7395976;19;20035;-68
2021/12/30 06:13:01;;;;;;;51.35;20.85;;;;;;;6.73;100.00;100617.03;7396501;19;20144;-68
2021/12/30 06:15:29;;;;;;;48.08;19.52;;;;;;;6.71;100.00;100610.97;7395225;19;20010;-68
2021/12/30 06:17:58;;;;;;;38.80;18.52;;;;;;;6.69;100.00;100608.34;7395302;19;20385;-68
2021/12/30 06:20:28;;;;;;;49.20;20.10;;;;;;;6.68;100.00;100608.38;7395919;19;20014;-69
2021/12/30 06:22:56;;;;;;;41.22;20.20;;;;;;;6.65;100.00;100600.59;7395822;19;20018;-68
2021/12/30 06:25:24;;;;;;;48.63;18.98;;;;;;;6.63;100.00;100608.41;7393955;19;20024;-68
2021/12/30 06:27:55;;;;;;;47.00;20.63;;;;;;;6.61;100.00;100601.47;7394631;19;20019;-68
2021/12/30 06:30:23;;;;;;;49.65;21.52;;;;;;;6.59;100.00;100608.44;7395691;19;20035;-68
2021/12/30 06:32:51;;;;;;;45.60;20.35;;;;;;;6.56;100.00;100614.56;7395591;19;20015;-69
2021/12/30 06:35:20;;;;;;;47.13;19.38;;;;;;;6.55;100.00;100615.41;7394636;19;20032;-70
2021/12/30 06:37:48;;;;;;;41.35;18.92;;;;;;;6.53;100.00;100619.78;7395181;19;20019;-69
2021/12/30 06:40:18;;;;;;;41.47;18.55;;;;;;;6.50;100.00;100614.59;7394424;19;20483;-68
2021/12/30 06:42:46;;;;;;;45.83;18.38;;;;;;;6.49;100.00;100623.28;7394215;19;20022;-70
2021/12/30 06:45:17;;;;;;;40.22;19.40;;;;;;;6.44;100.00;100635.47;7394356;19;20014;-69
2021/12/30 06:47:45;;;;;;;43.03;20.88;;;;;;;6.43;100.00;100655.47;7394299;19;20014;-68
2021/12/30 06:50:14;;;;;;;39.67;17.38;;;;;;;6.41;100.00;100661.53;7395078;19;20026;-69
2021/12/30 06:52:46;;;;;;;40.70;17.88;;;;;;;6.41;100.00;100664.16;7394907;19;20019;-68
2021/12/30 06:55:14;;;;;;;38.95;16.95;;;;;;;6.39;100.00;100665.91;7393685;19;20018;-68
2021/12/30 06:57:43;;;;;;;41.55;18.75;;;;;;;6.39;100.00;100666.78;7394681;19;20023;-69
2021/12/30 07:00:13;;;;;;;45.35;19.27;;;;;;;6.34;100.00;100669.44;7394608;19;20048;-68
2021/12/30 07:02:46;;;;;;;47.03;18.75;;;;;;;6.41;100.00;100675.47;7394487;19;20014;-69
2021/12/30 07:05:16;;;;;;;45.38;18.67;;;;;;;6.43;100.00;100676.31;7394038;19;20022;-69
2021/12/30 07:07:45;;;;;;;45.42;18.17;;;;;;;6.45;100.00;100673.72;7393236;19;20492;-69
2021/12/30 07:10:14;;;;;;;44.80;17.67;;;;;;;6.44;100.00;100667.59;7394273;19;20415;-67
2021/12/30 07:12:43;;;;;;;39.65;17.38;;;;;;;6.46;100.00;100668.47;7394094;19;20492;-70
2021/12/30 07:15:11;;;;;;;41.50;17.83;;;;;;;6.44;100.00;100665.00;7393630;19;20026;-69
2021/12/30 07:17:40;;;;;;;46.35;18.42;;;;;;;6.50;100.00;100682.38;7394087;19;20015;-68
2021/12/30 07:20:13;;;;;;;47.00;18.20;;;;;;;6.48;100.00;100668.47;7393870;19;20390;-68
2021/12/30 07:22:42;;;;;;;45.47;19.40;;;;;;;6.51;100.00;100678.88;7394230;19;20014;-69
2021/12/30 07:25:16;;;;;;;43.60;18.00;;;;;;;6.53;100.00;100674.50;7392004;19;20500;-68
2021/12/30 07:27:44;;;;;;;43.92;19.42;;;;;;;6.54;100.00;100683.22;7393135;19;20021;-68
2021/12/30 07:30:14;;;;;;;45.63;18.38;;;;;;;6.56;100.00;100697.97;7393714;19;20011;-68
2021/12/30 07:32:42;;;;;;;43.35;18.13;;;;;;;6.57;100.00;100697.09;7393635;19;20027;-68
2021/12/30 07:35:14;;;;;;;44.83;18.73;;;;;;;6.58;100.00;100700.56;7392517;19;20022;-68
2021/12/30 07:37:42;;;;;;;52.25;23.17;;;;;;;6.58;100.00;100695.34;7393897;19;20022;-69
2021/12/30 07:40:11;;;;;;;58.30;25.13;;;;;;;6.58;100.00;100690.97;7393059;19;20483;-69
2021/12/30 07:42:40;;;;;;;51.30;18.83;;;;;;;6.60;100.00;100686.63;7393669;19;20018;-67
2021/12/30 07:45:10;;;;;;;51.55;18.88;;;;;;;6.62;100.00;100674.47;7392060;19;20037;-68
2021/12/30 07:47:45;;;;;;;54.33;20.33;;;;;;;6.63;100.00;100678.78;7392907;19;20031;-68
2021/12/30 07:50:23;;;;;;;48.63;20.17;;;;;;;6.65;100.00;100678.78;7393756;19;20394;-68
2021/12/30 07:52:53;;;;;;;55.40;20.98;;;;;;;6.66;100.00;100684.00;7394427;19;20010;-68
2021/12/30 07:55:22;;;;;;;48.97;20.08;;;;;;;6.67;100.00;100696.16;7399069;19;20426;-68
2021/12/30 07:57:51;;;;;;;60.70;23.08;;;;;;;6.68;100.00;100705.72;7400567;19;20028;-69
2021/12/30 08:00:20;;;;;;;45.47;18.60;;;;;;;6.68;100.00;100710.06;7400152;19;20086;-68
2021/12/30 08:02:48;;;;;;;48.63;19.42;;;;;;;6.69;100.00;100714.41;7400146;19;20021;-69
2021/12/30 08:05:19;;;;;;;43.60;18.10;;;;;;;6.69;100.00;100725.69;7399295;19;20028;-69
2021/12/30 08:07:52;;;;;;;45.47;18.95;;;;;;;6.71;100.00;100716.97;7399853;19;20018;-68
2021/12/30 08:10:22;;;;;;;43.03;18.90;;;;;;;6.69;100.00;100706.56;7400659;19;20018;-68
2021/12/30 08:12:52;;;;;;;41.42;17.23;;;;;;;6.73;100.00;100710.03;7399828;19;20100;-69
2021/12/30 08:15:21;;;;;;;53.45;25.75;;;;;;;6.75;100.00;100695.22;7398947;19;20322;-68
2021/12/30 08:17:51;;;;;;;35.42;17.35;;;;;;;6.77;100.00;100696.09;7401481;19;20014;-69
2021/12/30 08:20:21;;;;;;;42.53;20.27;;;;;;;6.78;100.00;100705.66;7402874;19;20018;-69
2021/12/30 08:22:53;;;;;;;41.60;20.17;;;;;;;6.78;100.00;100690.00;7401981;19;20015;-69
2021/12/30 08:25:23;;;;;;;46.63;21.13;;;;;;;6.78;100.00;100690.00;7398332;19;20036;-68
2021/12/30 08:27:52;;;;;;;41.72;19.05;;;;;;;6.78;100.00;100688.25;7398922;19;20028;-69
2021/12/30 08:30:22;;;;;;;32.83;18.10;;;;;;;6.78;100.00;100679.56;7400059;19;20014;-70
2021/12/30 08:32:51;;;;;;;34.75;16.63;;;;;;;6.80;100.00;100685.66;7400199;19;20183;-68
2021/12/30 08:35:21;;;;;;;30.80;14.90;;;;;;;6.81;100.00;100680.41;7398470;19;20018;-69
2021/12/30 08:37:50;;;;;;;34.15;14.63;;;;;;;6.82;100.00;100694.31;7399015;19;20018;-68
2021/12/30 08:40:21;;;;;;;27.33;13.63;;;;;;;6.82;100.00;100700.41;7399287;19;20010;-68
2021/12/30 08:42:49;;;;;;;28.98;12.75;;;;;;;6.85;100.00;100705.59;7399200;19;20372;-68
2021/12/30 08:45:18;;;;;;;30.67;14.00;;;;;;;6.88;100.00;100715.13;7397958;19;20029;-68
2021/12/30 08:47:47;;;;;;;28.98;13.55;;;;;;;6.91;100.00;100720.31;7398861;19;20027;-68
2021/12/30 08:50:18;;;;;;;27.85;13.00;;;;;;;6.93;100.00;100708.16;7398939;19;20027;-68
2021/12/30 08:52:48;;;;;;;29.30;14.02;;;;;;;6.96;100.00;100718.56;7399257;19;20376;-68
2021/12/30 08:55:17;;;;;;;30.33;14.10;;;;;;;6.98;100.00;100711.59;7397910;19;20014;-68
2021/12/30 08:57:49;;;;;;;24.42;13.52;;;;;;;6.99;100.00;100723.75;7398760;19;20032;-69
2021/12/30 09:00:20;;;;;;;30.13;13.68;;;;;;;7.01;100.00;100716.78;7398670;19;20031;-69
2021/12/30 09:02:49;;;;;;;27.17;12.63;;;;;;;7.03;100.00;100714.16;7398976;19;20010;-69
2021/12/30 09:05:17;;;;;;;25.25;13.00;;;;;;;7.03;100.00;100716.78;7396401;19;20032;-69
2021/12/30 09:07:46;;;;;;;27.10;13.43;;;;;;;7.08;100.00;100727.19;7397444;19;20487;-69
2021/12/30 09:10:17;;;;;;;26.42;12.95;;;;;;;7.09;100.00;100724.56;7398139;19;20357;-69
2021/12/30 09:12:49;;;;;;;27.13;14.15;;;;;;;7.11;100.00;100717.56;7398674;19;20014;-69
2021/12/30 09:15:19;;;;;;;29.10;13.30;;;;;;;7.13;100.00;100721.03;7397547;19;20030;-68
2021/12/30 09:17:48;;;;;;;23.00;12.45;;;;;;;7.12;100.00;100718.44;7398476;19;20018;-68
2021/12/30 09:20:18;;;;;;;25.45;13.30;;;;;;;7.16;100.00;100722.75;7397550;19;20366;-69
2021/12/30 09:22:46;;;;;;;28.38;13.68;;;;;;;7.19;100.00;100725.34;7397680;19;20015;-69
2021/12/30 09:25:17;;;;;;;27.92;12.88;;;;;;;7.22;100.00;100721.84;7396009;19;20452;-69
2021/12/30 09:27:48;;;;;;;27.67;13.35;;;;;;;7.24;100.00;100722.69;7396961;19;20022;-68
2021/12/30 09:30:17;;;;;;;24.70;13.85;;;;;;;7.25;100.00;100740.09;7397639;19;20018;-69
2021/12/30 09:32:47;;;;;;;28.40;13.50;;;;;;;7.28;100.00;100745.25;7397259;19;20098;-68
2021/12/30 09:35:16;;;;;;;25.67;13.48;;;;;;;7.29;100.00;100742.66;7396322;19;20019;-68
2021/12/30 09:37:45;;;;;;;23.70;13.18;;;;;;;7.30;100.00;100743.53;7397337;19;20031;-68
2021/12/30 09:40:15;;;;;;;26.05;14.00;;;;;;;7.32;100.00;100744.38;7397719;19;20030;-68
2021/12/30 09:42:46;;;;;;;23.88;13.15;;;;;;;7.31;100.00;100740.88;7397345;19;20014;-69
2021/12/30 09:45:17;;;;;;;23.88;13.13;;;;;;;7.31;100.00;100735.66;7396479;19;20011;-68
2021/12/30 09:47:49;;;;;;;29.33;12.82;;;;;;;7.33;100.00;100740.91;7396510;19;20365;-68
2021/12/30 09:50:17;;;;;;;24.95;12.65;;;;;;;7.34;100.00;100740.00;7397238;19;20059;-68
2021/12/30 09:52:45;;;;;;;26.13;13.32;;;;;;;7.36;100.00;100732.19;7396244;19;20345;-68
2021/12/30 09:55:14;;;;;;;29.48;13.40;;;;;;;7.36;100.00;100738.25;7396258;19;20027;-67
2021/12/30 09:57:43;;;;;;;26.65;12.65;;;;;;;7.39;100.00;100729.53;7396049;19;20483;-68
2021/12/30 10:00:15;;;;;;;30.55;14.23;;;;;;;7.39;100.00;100730.38;7396210;19;20093;-68
2021/12/30 10:02:48;;;;;;;25.10;12.77;;;;;;;7.39;100.00;100716.47;7397026;19;20353;-68
2021/12/30 10:05:19;;;;;;;23.67;12.65;;;;;;;7.44;100.00;100725.13;7395948;19;20026;-68
2021/12/30 10:07:48;;;;;;;26.58;12.82;;;;;;;7.47;100.00;100717.28;7395991;19;20369;-68
2021/12/30 10:10:31;;;;;;;20.55;12.40;;;;;;;7.47;100.00;100718.13;7396171;19;20014;-68
2021/12/30 10:12:59;;;;;;;23.92;12.68;;;;;;;7.50;100.00;100719.84;7396445;19;20089;-68
2021/12/30 10:15:29;;;;;;;26.95;12.52;;;;;;;7.52;100.00;100730.28;7393010;19;20015;-68
2021/12/30 10:18:02;;;;;;;29.10;12.77;;;;;;;7.53;100.00;100719.81;7395219;19;20079;-68
2021/12/30 10:20:33;;;;;;;28.50;13.83;;;;;;;7.54;100.00;100737.22;7395744;19;20479;-68
2021/12/30 10:23:12;;;;;;;24.15;12.18;;;;;;;7.56;100.00;100738.06;7395770;19;20361;-67
2021/12/30 10:25:43;;;;;;;27.00;12.82;;;;;;;7.58;100.00;100722.38;7394190;19;20019;-67
2021/12/30 10:28:31;;;;;;;23.88;11.93;;;;;;;7.60;100.00;100720.63;7395318;19;20017;-68
2021/12/30 10:31:02;;;;;;;26.30;12.73;;;;;;;7.62;100.00;100716.25;7395330;19;20372;-68
2021/12/30 10:33:33;;;;;;;27.42;12.77;;;;;;;7.63;100.00;100721.47;7395571;19;20040;-68
2021/12/30 10:36:01;;;;;;;30.17;13.07;;;;;;;7.66;100.00;100720.59;7394164;19;20032;-69
2021/12/30 10:38:31;;;;;;;26.13;12.02;;;;;;;7.69;100.00;100711.84;7394707;19;20015;-68
2021/12/30 10:41:03;;;;;;;27.45;11.65;;;;;;;7.72;100.00;100709.19;7394669;19;20032;-68
2021/12/30 10:43:36;;;;;;;25.63;12.65;;;;;;;7.75;100.00;100715.25;7395718;19;20025;-69
2021/12/30 10:46:19;;;;;;;23.17;11.35;;;;;;;7.77;100.00;100713.50;7395036;19;20039;-69
2021/12/30 10:48:57;;;;;;;25.48;12.68;;;;;;;7.81;100.00;100719.56;7394807;19;20094;-69
2021/12/30 10:51:28;;;;;;;24.17;12.48;;;;;;;7.85;100.00;100729.09;7395105;19;20014;-68
2021/12/30 10:53:58;;;;;;;22.88;11.73;;;;;;;7.90;100.00;100713.34;7395066;19;20014;-68
2021/12/30 10:56:31;;;;;;;25.90;12.25;;;;;;;7.94;100.00;100715.91;7392988;19;20361;-69
2021/12/30 10:59:14;;;;;;;27.05;11.50;;;;;;;7.98;100.00;100708.91;7395199;19;20018;-69
2021/12/30 11:01:45;;;;;;;26.00;12.50;;;;;;;8.02;100.00;100714.97;7395470;19;20027;-69
2021/12/30 11:04:17;;;;;;;24.75;11.88;;;;;;;8.05;100.00;100717.53;7395450;19;20037;-68
2021/12/30 11:06:46;;;;;;;23.65;10.95;;;;;;;8.09;100.00;100716.63;7392884;19;20018;-69
2021/12/30 11:09:20;;;;;;;21.40;10.75;;;;;;;8.12;100.00;100716.59;7393411;19;20498;-68
2021/12/30 11:11:52;;;;;;;18.60;10.32;;;;;;;8.15;100.00;100719.16;7394146;19;20360;-68
2021/12/30 11:14:23;;;;;;;21.00;12.45;;;;;;;8.19;100.00;100706.91;7395160;19;20019;-68
2021/12/30 11:17:09;;;;;;;23.58;11.82;;;;;;;8.22;100.00;100697.28;7394660;19;20014;-68
2021/12/30 11:19:42;;;;;;;24.70;11.13;;;;;;;8.27;100.00;100705.94;7394839;19;20015;-68
2021/12/30 11:22:13;;;;;;;20.92;9.73;;;;;;;8.30;100.00;100703.28;7394345;19;20018;-66
2021/12/30 11:24:43;;;;;;;21.08;9.77;;;;;;;8.34;100.00;100711.09;7391807;19;20492;-67